Terminal Aerodrome Forecast
Issued by NWS Charleston, WV

Current Version | Previous Version | Graphics & Text | Print | Product List | Glossary On
Versions: 1 2 3 4 5 6 7 8 9 10 11 12 13 14 15 16 17 18 19 20 21 22 23 24 25 26 27 28 29 30
000
FTUS41 KRLX 200500 RRA
TAFEKN
TAF
KEKN 200542Z 2006/2106 32008KT P6SM SCT035
     FM200900 31005KT 6SM BR BKN025 BKN200
     FM201400 30005KT P6SM OVC022
     FM201700 30006KT P6SM SCT030 SCT200
     FM210200 00000KT P6SM BKN250=

USA.gov is the U.S. government's official web portal to all federal, state and local government web resources and services.